sensor_id;sensor_type;location;lat;lon;timestamp;P1;durP1;ratioP1;P2;durP2;ratioP2
56114;SDS011;41988;53.020;6.576;2023-04-25T00:01:15;23.08;;;4.63;;
56114;SDS011;41988;53.020;6.576;2023-04-25T00:04:00;15.60;;;4.00;;
56114;SDS011;41988;53.020;6.576;2023-04-25T00:06:44;16.45;;;3.47;;
56114;SDS011;41988;53.020;6.576;2023-04-25T00:09:29;21.73;;;4.93;;
56114;SDS011;41988;53.020;6.576;2023-04-25T00:12:13;18.15;;;5.07;;
56114;SDS011;41988;53.020;6.576;2023-04-25T00:14:59;26.75;;;5.53;;
56114;SDS011;41988;53.020;6.576;2023-04-25T00:17:43;17.13;;;4.30;;
56114;SDS011;41988;53.020;6.576;2023-04-25T00:20:29;23.50;;;4.05;;
56114;SDS011;41988;53.020;6.576;2023-04-25T00:23:15;22.38;;;4.43;;
56114;SDS011;41988;53.020;6.576;2023-04-25T00:26:00;18.55;;;4.25;;
56114;SDS011;41988;53.020;6.576;2023-04-25T00:28:45;21.85;;;4.10;;
56114;SDS011;41988;53.020;6.576;2023-04-25T00:31:30;14.77;;;3.63;;
56114;SDS011;41988;53.020;6.576;2023-04-25T00:34:14;25.38;;;4.72;;
56114;SDS011;41988;53.020;6.576;2023-04-25T00:36:59;23.48;;;4.95;;
56114;SDS011;41988;53.020;6.576;2023-04-25T00:39:45;28.10;;;5.13;;
56114;SDS011;41988;53.020;6.576;2023-04-25T00:42:30;16.95;;;4.55;;
56114;SDS011;41988;53.020;6.576;2023-04-25T00:45:15;10.00;;;3.60;;
56114;SDS011;41988;53.020;6.576;2023-04-25T00:48:01;13.75;;;3.70;;
56114;SDS011;41988;53.020;6.576;2023-04-25T00:50:48;18.65;;;3.70;;
56114;SDS011;41988;53.020;6.576;2023-04-25T00:53:35;23.40;;;4.38;;
56114;SDS011;41988;53.020;6.576;2023-04-25T00:56:20;15.73;;;4.70;;
56114;SDS011;41988;53.020;6.576;2023-04-25T00:59:05;20.33;;;4.82;;
56114;SDS011;41988;53.020;6.576;2023-04-25T01:01:50;18.17;;;3.50;;
56114;SDS011;41988;53.020;6.576;2023-04-25T01:04:34;15.60;;;3.13;;
56114;SDS011;41988;53.020;6.576;2023-04-25T01:07:19;13.45;;;3.70;;
56114;SDS011;41988;53.020;6.576;2023-04-25T01:10:04;14.82;;;3.25;;
56114;SDS011;41988;53.020;6.576;2023-04-25T01:12:49;15.45;;;3.33;;
56114;SDS011;41988;53.020;6.576;2023-04-25T01:15:34;18.88;;;3.60;;
56114;SDS011;41988;53.020;6.576;2023-04-25T01:18:19;15.38;;;3.38;;
56114;SDS011;41988;53.020;6.576;2023-04-25T01:21:11;14.00;;;3.03;;
56114;SDS011;41988;53.020;6.576;2023-04-25T01:23:56;14.30;;;2.80;;
56114;SDS011;41988;53.020;6.576;2023-04-25T01:26:42;19.73;;;3.30;;
56114;SDS011;41988;53.020;6.576;2023-04-25T01:29:33;17.27;;;3.60;;
56114;SDS011;41988;53.020;6.576;2023-04-25T01:32:18;14.43;;;3.95;;
56114;SDS011;41988;53.020;6.576;2023-04-25T01:35:04;14.02;;;2.95;;
56114;SDS011;41988;53.020;6.576;2023-04-25T01:37:52;17.30;;;3.25;;
56114;SDS011;41988;53.020;6.576;2023-04-25T01:40:37;13.90;;;3.08;;
56114;SDS011;41988;53.020;6.576;2023-04-25T01:43:23;16.70;;;2.78;;
56114;SDS011;41988;53.020;6.576;2023-04-25T01:46:07;16.63;;;3.13;;
56114;SDS011;41988;53.020;6.576;2023-04-25T01:48:52;11.70;;;2.83;;
56114;SDS011;41988;53.020;6.576;2023-04-25T01:51:37;20.25;;;3.80;;
56114;SDS011;41988;53.020;6.576;2023-04-25T01:54:21;14.13;;;4.45;;
56114;SDS011;41988;53.020;6.576;2023-04-25T01:57:06;11.93;;;2.97;;
56114;SDS011;41988;53.020;6.576;2023-04-25T01:59:50;17.40;;;3.20;;
56114;SDS011;41988;53.020;6.576;2023-04-25T02:02:35;13.57;;;3.63;;
56114;SDS011;41988;53.020;6.576;2023-04-25T02:05:20;15.63;;;3.75;;
56114;SDS011;41988;53.020;6.576;2023-04-25T02:08:05;16.30;;;3.28;;
56114;SDS011;41988;53.020;6.576;2023-04-25T02:10:50;14.35;;;3.30;;
56114;SDS011;41988;53.020;6.576;2023-04-25T02:13:34;19.05;;;2.65;;
56114;SDS011;41988;53.020;6.576;2023-04-25T02:16:19;12.45;;;3.55;;
56114;SDS011;41988;53.020;6.576;2023-04-25T02:19:04;16.25;;;3.67;;
56114;SDS011;41988;53.020;6.576;2023-04-25T02:21:48;16.33;;;2.95;;
56114;SDS011;41988;53.020;6.576;2023-04-25T02:24:33;11.60;;;2.72;;
56114;SDS011;41988;53.020;6.576;2023-04-25T02:27:18;11.10;;;3.25;;
56114;SDS011;41988;53.020;6.576;2023-04-25T02:30:03;20.58;;;2.92;;
56114;SDS011;41988;53.020;6.576;2023-04-25T02:32:48;13.70;;;3.25;;
56114;SDS011;41988;53.020;6.576;2023-04-25T02:35:33;13.85;;;3.60;;
56114;SDS011;41988;53.020;6.576;2023-04-25T02:38:17;18.10;;;4.22;;
56114;SDS011;41988;53.020;6.576;2023-04-25T02:41:02;17.05;;;3.53;;
56114;SDS011;41988;53.020;6.576;2023-04-25T02:43:46;18.85;;;3.25;;
56114;SDS011;41988;53.020;6.576;2023-04-25T02:46:31;18.08;;;3.53;;
56114;SDS011;41988;53.020;6.576;2023-04-25T02:49:15;13.93;;;3.00;;
56114;SDS011;41988;53.020;6.576;2023-04-25T02:52:00;12.15;;;3.05;;
56114;SDS011;41988;53.020;6.576;2023-04-25T02:54:45;15.23;;;3.00;;
56114;SDS011;41988;53.020;6.576;2023-04-25T02:57:29;17.58;;;2.83;;
56114;SDS011;41988;53.020;6.576;2023-04-25T03:00:13;17.60;;;3.40;;
56114;SDS011;41988;53.020;6.576;2023-04-25T03:02:58;14.98;;;2.90;;
56114;SDS011;41988;53.020;6.576;2023-04-25T03:05:46;15.25;;;2.70;;
56114;SDS011;41988;53.020;6.576;2023-04-25T03:08:30;16.15;;;2.53;;
56114;SDS011;41988;53.020;6.576;2023-04-25T03:11:16;16.48;;;2.97;;
56114;SDS011;41988;53.020;6.576;2023-04-25T03:14:01;15.15;;;4.32;;
56114;SDS011;41988;53.020;6.576;2023-04-25T03:16:45;13.13;;;2.97;;
56114;SDS011;41988;53.020;6.576;2023-04-25T03:19:30;14.55;;;3.28;;
56114;SDS011;41988;53.020;6.576;2023-04-25T03:22:15;12.82;;;2.30;;
56114;SDS011;41988;53.020;6.576;2023-04-25T03:24:59;20.63;;;2.92;;
56114;SDS011;41988;53.020;6.576;2023-04-25T03:27:44;14.68;;;2.80;;
56114;SDS011;41988;53.020;6.576;2023-04-25T03:30:28;15.45;;;3.35;;
56114;SDS011;41988;53.020;6.576;2023-04-25T03:33:13;13.73;;;2.80;;
56114;SDS011;41988;53.020;6.576;2023-04-25T03:35:57;17.67;;;2.83;;
56114;SDS011;41988;53.020;6.576;2023-04-25T03:38:42;14.20;;;3.30;;
56114;SDS011;41988;53.020;6.576;2023-04-25T03:41:26;11.32;;;2.45;;
56114;SDS011;41988;53.020;6.576;2023-04-25T03:44:11;10.25;;;2.47;;
56114;SDS011;41988;53.020;6.576;2023-04-25T03:46:56;14.13;;;2.10;;
56114;SDS011;41988;53.020;6.576;2023-04-25T03:49:40;16.75;;;2.67;;
56114;SDS011;41988;53.020;6.576;2023-04-25T03:52:25;11.65;;;2.10;;
56114;SDS011;41988;53.020;6.576;2023-04-25T03:55:09;10.60;;;2.63;;
56114;SDS011;41988;53.020;6.576;2023-04-25T03:57:54;13.82;;;2.40;;
56114;SDS011;41988;53.020;6.576;2023-04-25T04:00:39;9.10;;;2.22;;
56114;SDS011;41988;53.020;6.576;2023-04-25T04:03:23;11.95;;;3.08;;
56114;SDS011;41988;53.020;6.576;2023-04-25T04:06:08;13.90;;;1.98;;
56114;SDS011;41988;53.020;6.576;2023-04-25T04:08:54;14.18;;;1.92;;
56114;SDS011;41988;53.020;6.576;2023-04-25T04:11:39;7.65;;;2.08;;
56114;SDS011;41988;53.020;6.576;2023-04-25T04:14:24;7.63;;;1.35;;
56114;SDS011;41988;53.020;6.576;2023-04-25T04:17:08;10.05;;;2.63;;
56114;SDS011;41988;53.020;6.576;2023-04-25T04:19:53;14.43;;;4.05;;
56114;SDS011;41988;53.020;6.576;2023-04-25T04:22:38;7.75;;;2.08;;
56114;SDS011;41988;53.020;6.576;2023-04-25T04:25:22;10.07;;;3.17;;
56114;SDS011;41988;53.020;6.576;2023-04-25T04:28:08;7.60;;;1.88;;
56114;SDS011;41988;53.020;6.576;2023-04-25T04:30:52;6.25;;;1.80;;
56114;SDS011;41988;53.020;6.576;2023-04-25T04:33:36;10.40;;;2.53;;
56114;SDS011;41988;53.020;6.576;2023-04-25T04:36:21;5.43;;;1.90;;
56114;SDS011;41988;53.020;6.576;2023-04-25T04:39:06;11.82;;;2.38;;
56114;SDS011;41988;53.020;6.576;2023-04-25T04:41:52;9.82;;;2.13;;
56114;SDS011;41988;53.020;6.576;2023-04-25T04:44:37;7.38;;;1.90;;
56114;SDS011;41988;53.020;6.576;2023-04-25T04:47:22;8.50;;;2.00;;
56114;SDS011;41988;53.020;6.576;2023-04-25T04:50:07;6.28;;;1.92;;
56114;SDS011;41988;53.020;6.576;2023-04-25T04:52:52;11.13;;;2.20;;
56114;SDS011;41988;53.020;6.576;2023-04-25T04:55:39;8.05;;;1.70;;
56114;SDS011;41988;53.020;6.576;2023-04-25T04:58:24;7.72;;;1.77;;
56114;SDS011;41988;53.020;6.576;2023-04-25T05:01:09;6.90;;;1.95;;
56114;SDS011;41988;53.020;6.576;2023-04-25T05:03:54;8.77;;;4.45;;
56114;SDS011;41988;53.020;6.576;2023-04-25T05:06:43;11.48;;;3.25;;
56114;SDS011;41988;53.020;6.576;2023-04-25T05:09:28;3.60;;;1.50;;
56114;SDS011;41988;53.020;6.576;2023-04-25T05:12:13;8.68;;;2.03;;
56114;SDS011;41988;53.020;6.576;2023-04-25T05:14:57;9.00;;;1.65;;
56114;SDS011;41988;53.020;6.576;2023-04-25T05:17:42;8.38;;;1.75;;
56114;SDS011;41988;53.020;6.576;2023-04-25T05:20:26;15.65;;;2.45;;
56114;SDS011;41988;53.020;6.576;2023-04-25T05:23:11;11.65;;;2.20;;
56114;SDS011;41988;53.020;6.576;2023-04-25T05:25:56;7.90;;;2.10;;
56114;SDS011;41988;53.020;6.576;2023-04-25T05:28:41;10.10;;;1.35;;
56114;SDS011;41988;53.020;6.576;2023-04-25T05:31:25;10.15;;;2.30;;
56114;SDS011;41988;53.020;6.576;2023-04-25T05:34:10;15.68;;;2.58;;
56114;SDS011;41988;53.020;6.576;2023-04-25T05:36:55;5.88;;;2.08;;
56114;SDS011;41988;53.020;6.576;2023-04-25T05:39:39;9.15;;;2.10;;
56114;SDS011;41988;53.020;6.576;2023-04-25T05:42:24;11.80;;;2.00;;
56114;SDS011;41988;53.020;6.576;2023-04-25T05:45:08;7.88;;;2.40;;
56114;SDS011;41988;53.020;6.576;2023-04-25T05:47:53;8.93;;;1.77;;
56114;SDS011;41988;53.020;6.576;2023-04-25T05:50:38;7.07;;;2.05;;
56114;SDS011;41988;53.020;6.576;2023-04-25T05:53:23;9.68;;;1.88;;
56114;SDS011;41988;53.020;6.576;2023-04-25T05:56:07;11.60;;;2.42;;
56114;SDS011;41988;53.020;6.576;2023-04-25T05:58:52;9.77;;;2.45;;
56114;SDS011;41988;53.020;6.576;2023-04-25T06:01:37;10.60;;;2.58;;
56114;SDS011;41988;53.020;6.576;2023-04-25T06:04:22;22.05;;;2.97;;
56114;SDS011;41988;53.020;6.576;2023-04-25T06:07:06;13.23;;;2.30;;
56114;SDS011;41988;53.020;6.576;2023-04-25T06:09:51;7.28;;;2.10;;
56114;SDS011;41988;53.020;6.576;2023-04-25T06:12:37;14.65;;;2.08;;
56114;SDS011;41988;53.020;6.576;2023-04-25T06:15:22;18.98;;;2.35;;
56114;SDS011;41988;53.020;6.576;2023-04-25T06:18:06;9.77;;;2.15;;
56114;SDS011;41988;53.020;6.576;2023-04-25T06:20:51;19.02;;;2.10;;
56114;SDS011;41988;53.020;6.576;2023-04-25T06:23:35;11.50;;;2.10;;
56114;SDS011;41988;53.020;6.576;2023-04-25T06:26:20;9.82;;;1.95;;
56114;SDS011;41988;53.020;6.576;2023-04-25T06:29:04;12.10;;;2.13;;
56114;SDS011;41988;53.020;6.576;2023-04-25T06:31:49;9.45;;;2.00;;
56114;SDS011;41988;53.020;6.576;2023-04-25T06:34:33;15.98;;;2.33;;
56114;SDS011;41988;53.020;6.576;2023-04-25T06:37:18;14.70;;;1.85;;
56114;SDS011;41988;53.020;6.576;2023-04-25T06:40:03;9.82;;;2.25;;
56114;SDS011;41988;53.020;6.576;2023-04-25T06:42:48;10.55;;;3.28;;
56114;SDS011;41988;53.020;6.576;2023-04-25T06:45:32;5.70;;;1.27;;
56114;SDS011;41988;53.020;6.576;2023-04-25T06:48:17;11.13;;;1.83;;
56114;SDS011;41988;53.020;6.576;2023-04-25T06:51:01;6.97;;;1.50;;
56114;SDS011;41988;53.020;6.576;2023-04-25T06:53:46;11.68;;;2.50;;
56114;SDS011;41988;53.020;6.576;2023-04-25T06:56:31;17.88;;;2.05;;
56114;SDS011;41988;53.020;6.576;2023-04-25T06:59:16;7.65;;;1.63;;
56114;SDS011;41988;53.020;6.576;2023-04-25T07:02:00;7.38;;;2.22;;
56114;SDS011;41988;53.020;6.576;2023-04-25T07:04:45;9.30;;;1.88;;
56114;SDS011;41988;53.020;6.576;2023-04-25T07:07:30;6.45;;;1.67;;
56114;SDS011;41988;53.020;6.576;2023-04-25T07:10:15;15.48;;;2.17;;
56114;SDS011;41988;53.020;6.576;2023-04-25T07:12:59;12.13;;;2.22;;
56114;SDS011;41988;53.020;6.576;2023-04-25T07:15:44;10.52;;;2.25;;
56114;SDS011;41988;53.020;6.576;2023-04-25T07:18:28;9.43;;;1.90;;
56114;SDS011;41988;53.020;6.576;2023-04-25T07:21:13;8.63;;;1.55;;
56114;SDS011;41988;53.020;6.576;2023-04-25T07:23:57;5.95;;;1.63;;
56114;SDS011;41988;53.020;6.576;2023-04-25T07:26:42;10.82;;;1.60;;
56114;SDS011;41988;53.020;6.576;2023-04-25T07:29:27;10.73;;;1.60;;
56114;SDS011;41988;53.020;6.576;2023-04-25T07:32:13;6.35;;;1.20;;
56114;SDS011;41988;53.020;6.576;2023-04-25T07:34:58;6.50;;;2.25;;
56114;SDS011;41988;53.020;6.576;2023-04-25T07:37:42;5.65;;;1.48;;
56114;SDS011;41988;53.020;6.576;2023-04-25T07:40:27;6.35;;;1.77;;
56114;SDS011;41988;53.020;6.576;2023-04-25T07:43:12;3.47;;;1.20;;
56114;SDS011;41988;53.020;6.576;2023-04-25T07:46:00;9.43;;;1.70;;
56114;SDS011;41988;53.020;6.576;2023-04-25T07:48:44;3.72;;;1.10;;
56114;SDS011;41988;53.020;6.576;2023-04-25T07:51:29;7.93;;;1.52;;
56114;SDS011;41988;53.020;6.576;2023-04-25T07:54:14;5.57;;;1.13;;
56114;SDS011;41988;53.020;6.576;2023-04-25T07:56:59;8.85;;;1.40;;
56114;SDS011;41988;53.020;6.576;2023-04-25T07:59:45;7.80;;;1.45;;
56114;SDS011;41988;53.020;6.576;2023-04-25T08:02:29;6.68;;;1.40;;
56114;SDS011;41988;53.020;6.576;2023-04-25T08:05:14;4.93;;;1.30;;
56114;SDS011;41988;53.020;6.576;2023-04-25T08:07:59;6.50;;;1.30;;
56114;SDS011;41988;53.020;6.576;2023-04-25T08:10:45;12.85;;;1.83;;
56114;SDS011;41988;53.020;6.576;2023-04-25T08:13:31;4.95;;;1.55;;
56114;SDS011;41988;53.020;6.576;2023-04-25T08:16:16;5.53;;;1.20;;
56114;SDS011;41988;53.020;6.576;2023-04-25T08:19:00;6.82;;;1.20;;
56114;SDS011;41988;53.020;6.576;2023-04-25T08:21:45;5.20;;;1.10;;
56114;SDS011;41988;53.020;6.576;2023-04-25T08:24:30;5.07;;;1.80;;
56114;SDS011;41988;53.020;6.576;2023-04-25T08:27:14;5.18;;;1.63;;
56114;SDS011;41988;53.020;6.576;2023-04-25T08:29:59;11.50;;;2.08;;
56114;SDS011;41988;53.020;6.576;2023-04-25T08:32:43;7.40;;;1.40;;
56114;SDS011;41988;53.020;6.576;2023-04-25T08:35:28;7.60;;;1.20;;
56114;SDS011;41988;53.020;6.576;2023-04-25T08:38:13;13.32;;;1.60;;
56114;SDS011;41988;53.020;6.576;2023-04-25T08:40:58;5.68;;;1.50;;
56114;SDS011;41988;53.020;6.576;2023-04-25T08:43:44;11.95;;;1.67;;
56114;SDS011;41988;53.020;6.576;2023-04-25T08:46:29;4.10;;;1.15;;
56114;SDS011;41988;53.020;6.576;2023-04-25T08:49:15;3.42;;;1.05;;
56114;SDS011;41988;53.020;6.576;2023-04-25T08:52:01;4.40;;;0.90;;
56114;SDS011;41988;53.020;6.576;2023-04-25T08:54:48;2.85;;;0.80;;
56114;SDS011;41988;53.020;6.576;2023-04-25T08:57:33;3.95;;;1.23;;
56114;SDS011;41988;53.020;6.576;2023-04-25T09:00:18;2.33;;;0.90;;
56114;SDS011;41988;53.020;6.576;2023-04-25T09:03:02;2.72;;;0.88;;
56114;SDS011;41988;53.020;6.576;2023-04-25T09:05:47;3.60;;;1.73;;
56114;SDS011;41988;53.020;6.576;2023-04-25T09:08:31;3.65;;;0.90;;
56114;SDS011;41988;53.020;6.576;2023-04-25T09:11:16;2.65;;;1.05;;
56114;SDS011;41988;53.020;6.576;2023-04-25T09:14:20;6.03;;;1.35;;
56114;SDS011;41988;53.020;6.576;2023-04-25T09:17:05;3.90;;;1.20;;
56114;SDS011;41988;53.020;6.576;2023-04-25T09:19:51;8.40;;;1.17;;
56114;SDS011;41988;53.020;6.576;2023-04-25T09:22:36;3.25;;;1.45;;
56114;SDS011;41988;53.020;6.576;2023-04-25T09:25:20;5.68;;;1.15;;
56114;SDS011;41988;53.020;6.576;2023-04-25T09:28:06;5.10;;;1.73;;
56114;SDS011;41988;53.020;6.576;2023-04-25T09:30:52;3.40;;;0.90;;
56114;SDS011;41988;53.020;6.576;2023-04-25T09:33:40;7.03;;;1.38;;
56114;SDS011;41988;53.020;6.576;2023-04-25T09:36:25;4.60;;;1.38;;
56114;SDS011;41988;53.020;6.576;2023-04-25T09:39:12;7.88;;;1.98;;
56114;SDS011;41988;53.020;6.576;2023-04-25T09:41:59;6.40;;;1.63;;
56114;SDS011;41988;53.020;6.576;2023-04-25T09:44:47;8.30;;;1.95;;
56114;SDS011;41988;53.020;6.576;2023-04-25T09:47:31;5.70;;;1.60;;
56114;SDS011;41988;53.020;6.576;2023-04-25T09:50:16;5.45;;;1.52;;
56114;SDS011;41988;53.020;6.576;2023-04-25T09:53:03;13.07;;;2.17;;
56114;SDS011;41988;53.020;6.576;2023-04-25T09:55:51;5.88;;;1.65;;
56114;SDS011;41988;53.020;6.576;2023-04-25T09:58:37;9.38;;;2.03;;
56114;SDS011;41988;53.020;6.576;2023-04-25T10:01:22;5.07;;;1.58;;
56114;SDS011;41988;53.020;6.576;2023-04-25T10:04:08;4.38;;;1.40;;
56114;SDS011;41988;53.020;6.576;2023-04-25T10:06:54;6.68;;;1.50;;
56114;SDS011;41988;53.020;6.576;2023-04-25T10:09:40;11.20;;;2.25;;
56114;SDS011;41988;53.020;6.576;2023-04-25T10:12:26;10.55;;;1.75;;
56114;SDS011;41988;53.020;6.576;2023-04-25T10:15:10;10.48;;;1.83;;
56114;SDS011;41988;53.020;6.576;2023-04-25T10:17:56;5.97;;;1.70;;
56114;SDS011;41988;53.020;6.576;2023-04-25T10:20:41;9.18;;;2.58;;
56114;SDS011;41988;53.020;6.576;2023-04-25T10:23:26;11.80;;;2.50;;
56114;SDS011;41988;53.020;6.576;2023-04-25T10:26:11;6.22;;;1.67;;
56114;SDS011;41988;53.020;6.576;2023-04-25T10:29:00;7.38;;;3.15;;
56114;SDS011;41988;53.020;6.576;2023-04-25T10:31:46;8.90;;;1.52;;
56114;SDS011;41988;53.020;6.576;2023-04-25T10:34:40;8.25;;;2.38;;
56114;SDS011;41988;53.020;6.576;2023-04-25T10:37:25;9.75;;;1.80;;
56114;SDS011;41988;53.020;6.576;2023-04-25T10:40:10;9.13;;;1.63;;
56114;SDS011;41988;53.020;6.576;2023-04-25T10:42:55;11.70;;;2.35;;
56114;SDS011;41988;53.020;6.576;2023-04-25T10:46:00;8.85;;;2.67;;
56114;SDS011;41988;53.020;6.576;2023-04-25T10:48:46;5.28;;;1.60;;
56114;SDS011;41988;53.020;6.576;2023-04-25T10:51:32;4.63;;;1.48;;
56114;SDS011;41988;53.020;6.576;2023-04-25T10:54:18;7.57;;;1.40;;
56114;SDS011;41988;53.020;6.576;2023-04-25T10:57:03;7.00;;;1.45;;
56114;SDS011;41988;53.020;6.576;2023-04-25T10:59:48;7.25;;;2.70;;
56114;SDS011;41988;53.020;6.576;2023-04-25T11:02:36;7.50;;;1.60;;
56114;SDS011;41988;53.020;6.576;2023-04-25T11:05:34;8.40;;;1.75;;
56114;SDS011;41988;53.020;6.576;2023-04-25T11:08:22;10.88;;;2.35;;
56114;SDS011;41988;53.020;6.576;2023-04-25T11:11:20;9.55;;;2.13;;
56114;SDS011;41988;53.020;6.576;2023-04-25T11:14:05;7.82;;;2.03;;
56114;SDS011;41988;53.020;6.576;2023-04-25T11:16:56;8.73;;;1.45;;
56114;SDS011;41988;53.020;6.576;2023-04-25T11:19:41;7.57;;;1.65;;
56114;SDS011;41988;53.020;6.576;2023-04-25T11:22:26;7.22;;;1.50;;
56114;SDS011;41988;53.020;6.576;2023-04-25T11:25:11;10.20;;;1.55;;
56114;SDS011;41988;53.020;6.576;2023-04-25T11:27:57;7.53;;;2.42;;
56114;SDS011;41988;53.020;6.576;2023-04-25T11:30:47;7.60;;;2.22;;
56114;SDS011;41988;53.020;6.576;2023-04-25T11:33:32;7.65;;;1.70;;
56114;SDS011;41988;53.020;6.576;2023-04-25T11:36:16;10.18;;;2.60;;
56114;SDS011;41988;53.020;6.576;2023-04-25T11:39:01;9.40;;;2.05;;
56114;SDS011;41988;53.020;6.576;2023-04-25T11:41:46;6.80;;;1.75;;
56114;SDS011;41988;53.020;6.576;2023-04-25T11:44:31;13.52;;;1.80;;
56114;SDS011;41988;53.020;6.576;2023-04-25T11:47:16;11.38;;;2.00;;
56114;SDS011;41988;53.020;6.576;2023-04-25T11:50:01;9.10;;;2.05;;
56114;SDS011;41988;53.020;6.576;2023-04-25T11:52:47;8.27;;;1.50;;
56114;SDS011;41988;53.020;6.576;2023-04-25T11:55:32;11.05;;;1.90;;
56114;SDS011;41988;53.020;6.576;2023-04-25T11:58:16;7.70;;;1.50;;
56114;SDS011;41988;53.020;6.576;2023-04-25T12:01:03;5.10;;;1.35;;
56114;SDS011;41988;53.020;6.576;2023-04-25T12:03:47;5.57;;;1.83;;
56114;SDS011;41988;53.020;6.576;2023-04-25T12:06:32;6.90;;;1.60;;
56114;SDS011;41988;53.020;6.576;2023-04-25T12:09:20;7.32;;;2.15;;
56114;SDS011;41988;53.020;6.576;2023-04-25T12:12:05;8.55;;;1.85;;
56114;SDS011;41988;53.020;6.576;2023-04-25T12:14:53;3.90;;;1.25;;
56114;SDS011;41988;53.020;6.576;2023-04-25T12:17:39;8.38;;;1.52;;
56114;SDS011;41988;53.020;6.576;2023-04-25T12:20:24;3.00;;;1.45;;
56114;SDS011;41988;53.020;6.576;2023-04-25T12:23:09;8.38;;;1.30;;
56114;SDS011;41988;53.020;6.576;2023-04-25T12:25:55;8.65;;;1.60;;
56114;SDS011;41988;53.020;6.576;2023-04-25T12:28:39;7.60;;;1.10;;
56114;SDS011;41988;53.020;6.576;2023-04-25T12:31:24;3.95;;;1.60;;
56114;SDS011;41988;53.020;6.576;2023-04-25T12:34:09;5.95;;;1.60;;
56114;SDS011;41988;53.020;6.576;2023-04-25T12:36:53;7.38;;;1.52;;
56114;SDS011;41988;53.020;6.576;2023-04-25T12:39:39;10.07;;;2.08;;
56114;SDS011;41988;53.020;6.576;2023-04-25T12:42:24;6.50;;;1.45;;
56114;SDS011;41988;53.020;6.576;2023-04-25T12:45:08;8.90;;;1.52;;
56114;SDS011;41988;53.020;6.576;2023-04-25T12:47:53;7.90;;;1.75;;
56114;SDS011;41988;53.020;6.576;2023-04-25T12:50:38;9.63;;;1.92;;
56114;SDS011;41988;53.020;6.576;2023-04-25T12:53:22;7.32;;;1.73;;
56114;SDS011;41988;53.020;6.576;2023-04-25T12:56:08;7.28;;;1.42;;
56114;SDS011;41988;53.020;6.576;2023-04-25T12:58:53;8.90;;;1.73;;
56114;SDS011;41988;53.020;6.576;2023-04-25T13:01:38;10.60;;;1.83;;
56114;SDS011;41988;53.020;6.576;2023-04-25T13:04:22;10.25;;;2.03;;
56114;SDS011;41988;53.020;6.576;2023-04-25T13:07:07;7.07;;;1.52;;
56114;SDS011;41988;53.020;6.576;2023-04-25T13:09:51;6.13;;;1.52;;
56114;SDS011;41988;53.020;6.576;2023-04-25T13:12:36;9.48;;;1.40;;
56114;SDS011;41988;53.020;6.576;2023-04-25T13:15:21;9.65;;;3.95;;
56114;SDS011;41988;53.020;6.576;2023-04-25T13:18:05;7.07;;;1.55;;
56114;SDS011;41988;53.020;6.576;2023-04-25T13:20:50;7.30;;;1.55;;
56114;SDS011;41988;53.020;6.576;2023-04-25T13:23:34;8.48;;;1.70;;
56114;SDS011;41988;53.020;6.576;2023-04-25T13:26:19;8.40;;;2.65;;
56114;SDS011;41988;53.020;6.576;2023-04-25T13:29:04;7.47;;;1.38;;
56114;SDS011;41988;53.020;6.576;2023-04-25T13:31:48;9.45;;;1.42;;
56114;SDS011;41988;53.020;6.576;2023-04-25T13:34:33;6.53;;;1.65;;
56114;SDS011;41988;53.020;6.576;2023-04-25T13:37:17;5.07;;;1.15;;
56114;SDS011;41988;53.020;6.576;2023-04-25T13:40:03;3.92;;;1.45;;
56114;SDS011;41988;53.020;6.576;2023-04-25T13:42:48;6.43;;;1.58;;
56114;SDS011;41988;53.020;6.576;2023-04-25T13:45:34;6.10;;;1.60;;
56114;SDS011;41988;53.020;6.576;2023-04-25T13:48:19;5.72;;;1.38;;
56114;SDS011;41988;53.020;6.576;2023-04-25T13:51:04;5.82;;;2.25;;
56114;SDS011;41988;53.020;6.576;2023-04-25T13:53:48;19.42;;;2.60;;
56114;SDS011;41988;53.020;6.576;2023-04-25T13:56:33;9.75;;;2.15;;
56114;SDS011;41988;53.020;6.576;2023-04-25T13:59:18;8.73;;;2.25;;
56114;SDS011;41988;53.020;6.576;2023-04-25T14:02:03;5.00;;;1.40;;
56114;SDS011;41988;53.020;6.576;2023-04-25T14:04:48;7.32;;;1.50;;
56114;SDS011;41988;53.020;6.576;2023-04-25T14:07:36;5.53;;;2.00;;
56114;SDS011;41988;53.020;6.576;2023-04-25T14:10:21;8.65;;;1.60;;
56114;SDS011;41988;53.020;6.576;2023-04-25T14:13:05;6.82;;;1.88;;
56114;SDS011;41988;53.020;6.576;2023-04-25T14:15:50;10.95;;;1.70;;
56114;SDS011;41988;53.020;6.576;2023-04-25T14:18:35;6.18;;;1.30;;
56114;SDS011;41988;53.020;6.576;2023-04-25T14:21:20;7.40;;;1.77;;
56114;SDS011;41988;53.020;6.576;2023-04-25T14:24:05;7.85;;;2.15;;
56114;SDS011;41988;53.020;6.576;2023-04-25T14:26:49;4.78;;;1.33;;
56114;SDS011;41988;53.020;6.576;2023-04-25T14:29:34;6.72;;;1.65;;
56114;SDS011;41988;53.020;6.576;2023-04-25T14:32:18;7.40;;;1.58;;
56114;SDS011;41988;53.020;6.576;2023-04-25T14:35:04;13.90;;;2.38;;
56114;SDS011;41988;53.020;6.576;2023-04-25T14:37:49;5.53;;;1.60;;
56114;SDS011;41988;53.020;6.576;2023-04-25T14:40:34;6.15;;;2.03;;
56114;SDS011;41988;53.020;6.576;2023-04-25T14:43:18;6.63;;;1.42;;
56114;SDS011;41988;53.020;6.576;2023-04-25T14:46:03;8.70;;;1.83;;
56114;SDS011;41988;53.020;6.576;2023-04-25T14:48:47;7.50;;;1.65;;
56114;SDS011;41988;53.020;6.576;2023-04-25T14:51:32;12.75;;;2.10;;
56114;SDS011;41988;53.020;6.576;2023-04-25T14:54:17;12.45;;;2.13;;
56114;SDS011;41988;53.020;6.576;2023-04-25T14:57:01;8.35;;;1.88;;
56114;SDS011;41988;53.020;6.576;2023-04-25T14:59:46;11.35;;;2.05;;
56114;SDS011;41988;53.020;6.576;2023-04-25T15:02:30;8.20;;;1.92;;
56114;SDS011;41988;53.020;6.576;2023-04-25T15:05:15;11.10;;;1.92;;
56114;SDS011;41988;53.020;6.576;2023-04-25T15:07:59;6.25;;;1.40;;
56114;SDS011;41988;53.020;6.576;2023-04-25T15:10:45;8.23;;;1.42;;
56114;SDS011;41988;53.020;6.576;2023-04-25T15:13:30;6.95;;;1.40;;
56114;SDS011;41988;53.020;6.576;2023-04-25T15:16:15;6.80;;;1.70;;
56114;SDS011;41988;53.020;6.576;2023-04-25T15:19:00;7.75;;;1.48;;
56114;SDS011;41988;53.020;6.576;2023-04-25T15:21:47;9.18;;;1.50;;
56114;SDS011;41988;53.020;6.576;2023-04-25T15:24:32;5.80;;;1.80;;
56114;SDS011;41988;53.020;6.576;2023-04-25T15:27:16;5.55;;;1.27;;
56114;SDS011;41988;53.020;6.576;2023-04-25T15:30:01;6.18;;;1.55;;
56114;SDS011;41988;53.020;6.576;2023-04-25T15:32:46;5.95;;;1.67;;
56114;SDS011;41988;53.020;6.576;2023-04-25T15:35:31;5.05;;;1.20;;
56114;SDS011;41988;53.020;6.576;2023-04-25T15:38:15;8.52;;;1.75;;
56114;SDS011;41988;53.020;6.576;2023-04-25T15:41:00;7.05;;;1.63;;
56114;SDS011;41988;53.020;6.576;2023-04-25T15:43:46;6.35;;;1.58;;
56114;SDS011;41988;53.020;6.576;2023-04-25T15:46:31;6.68;;;1.77;;
56114;SDS011;41988;53.020;6.576;2023-04-25T15:49:15;10.73;;;1.83;;
56114;SDS011;41988;53.020;6.576;2023-04-25T15:52:01;7.18;;;1.50;;
56114;SDS011;41988;53.020;6.576;2023-04-25T15:54:46;7.97;;;1.50;;
56114;SDS011;41988;53.020;6.576;2023-04-25T15:57:32;11.70;;;2.67;;
56114;SDS011;41988;53.020;6.576;2023-04-25T16:00:17;8.20;;;1.58;;
56114;SDS011;41988;53.020;6.576;2023-04-25T16:03:03;8.32;;;1.80;;
56114;SDS011;41988;53.020;6.576;2023-04-25T16:05:48;5.55;;;1.27;;
56114;SDS011;41988;53.020;6.576;2023-04-25T16:08:33;9.23;;;1.30;;
56114;SDS011;41988;53.020;6.576;2023-04-25T16:11:18;7.45;;;1.60;;
56114;SDS011;41988;53.020;6.576;2023-04-25T16:14:03;7.22;;;1.50;;
56114;SDS011;41988;53.020;6.576;2023-04-25T16:16:48;8.98;;;1.85;;
56114;SDS011;41988;53.020;6.576;2023-04-25T16:19:33;5.60;;;1.27;;
56114;SDS011;41988;53.020;6.576;2023-04-25T16:22:18;9.43;;;1.73;;
56114;SDS011;41988;53.020;6.576;2023-04-25T16:25:02;7.68;;;1.85;;
56114;SDS011;41988;53.020;6.576;2023-04-25T16:27:48;4.57;;;1.33;;
56114;SDS011;41988;53.020;6.576;2023-04-25T16:30:33;6.97;;;1.65;;